Time;durP1;ratioP1;P1;durP2;ratioP2;P2;SDS_P1;SDS_P2;PMS_P1;PMS_P2;Temp;Humidity;BMP_temperature;BMP_pressure;BME280_temperature;BME280_humidity;BME280_pressure;Samples;Min_cycle;Max_cycle;Signal;HPM_P1;HPM_P2
2022/05/28 00:02:05;;;;;;;7.83;1.63;;;11.50;99.90;;;;;;5025160;28;20698;-70
2022/05/28 00:04:50;;;;;;;6.20;1.37;;;11.50;99.90;;;;;;5027670;28;20674;-70
2022/05/28 00:07:34;;;;;;;6.93;1.10;;;11.50;99.90;;;;;;5026506;28;20262;-71
2022/05/28 00:10:19;;;;;;;5.17;1.17;;;11.50;99.90;;;;;;5022272;28;20211;-70
2022/05/28 00:13:04;;;;;;;5.07;1.43;;;11.40;99.90;;;;;;5026346;28;20241;-71
2022/05/28 00:15:48;;;;;;;4.47;1.03;;;11.30;99.90;;;;;;5025879;28;20242;-71
2022/05/28 00:18:32;;;;;;;4.87;0.80;;;11.20;99.90;;;;;;5023773;28;20176;-71
2022/05/28 00:21:17;;;;;;;3.23;0.97;;;11.00;99.90;;;;;;5024804;28;20257;-70
2022/05/28 00:24:02;;;;;;;5.60;0.80;;;10.90;99.90;;;;;;5025790;28;20222;-71
2022/05/28 00:26:46;;;;;;;6.07;0.80;;;10.90;99.90;;;;;;5026423;28;20222;-71
2022/05/28 00:29:30;;;;;;;6.30;1.30;;;10.70;99.90;;;;;;5026709;28;20254;-72
2022/05/28 00:32:14;;;;;;;4.97;1.00;;;10.70;99.90;;;;;;5028315;28;20302;-71
2022/05/28 00:34:58;;;;;;;7.87;1.10;;;10.70;99.90;;;;;;5028408;28;20275;-71
2022/05/28 00:37:43;;;;;;;4.53;1.03;;;10.70;99.90;;;;;;5025448;28;20190;-71
2022/05/28 00:40:28;;;;;;;4.60;1.10;;;10.60;99.90;;;;;;5025517;28;20373;-71
2022/05/28 00:43:12;;;;;;;5.87;1.17;;;10.60;99.90;;;;;;5025300;28;20218;-70
2022/05/28 00:46:05;;;;;;;7.63;1.50;;;10.60;99.90;;;;;;5022823;28;20213;-70
2022/05/28 00:48:55;;;;;;;6.03;1.10;;;10.60;99.90;;;;;;5024247;28;20254;-71
2022/05/28 00:51:43;;;;;;;5.33;1.20;;;10.60;99.90;;;;;;5024917;28;20560;-71
2022/05/28 00:54:33;;;;;;;7.27;1.13;;;10.60;99.90;;;;;;5024058;28;20213;-71
2022/05/28 00:57:19;;;;;;;4.50;1.23;;;10.60;99.90;;;;;;5026128;28;20199;-70
2022/05/28 01:00:04;;;;;;;5.50;1.43;;;10.60;99.90;;;;;;5025702;28;20287;-70
2022/05/28 01:03:22;;;;;;;4.63;1.13;;;10.60;99.90;;;;;;5025587;28;20267;-70
2022/05/28 01:06:42;;;;;;;9.73;1.27;;;10.50;99.90;;;;;;5025761;28;20238;-71
2022/05/28 01:09:48;;;;;;;4.93;1.07;;;10.50;99.90;;;;;;5010001;28;20250;-71
2022/05/28 01:12:52;;;;;;;4.93;1.33;;;10.50;99.90;;;;;;5024083;28;20186;-70
2022/05/28 01:15:55;;;;;;;9.67;1.23;;;10.50;99.90;;;;;;5025244;28;20229;-70
2022/05/28 01:18:46;;;;;;;9.27;1.47;;;10.50;99.90;;;;;;5023361;28;20563;-70
2022/05/28 01:21:56;;;;;;;9.93;2.00;;;10.50;99.90;;;;;;5025690;28;20175;-70
2022/05/28 01:24:56;;;;;;;7.20;1.60;;;10.50;99.90;;;;;;5024621;28;20317;-70
2022/05/28 01:27:48;;;;;;;3.43;1.00;;;10.50;99.90;;;;;;5025887;28;20190;-70
2022/05/28 01:30:32;;;;;;;7.33;1.50;;;10.60;99.90;;;;;;5023432;28;20213;-70
2022/05/28 01:33:18;;;;;;;6.73;1.90;;;10.50;99.90;;;;;;5024452;28;20199;-70
2022/05/28 01:36:08;;;;;;;7.33;1.57;;;10.50;99.90;;;;;;5025016;28;20179;-69
2022/05/28 01:38:55;;;;;;;6.60;1.30;;;10.50;99.90;;;;;;5024507;28;20706;-70
2022/05/28 01:41:40;;;;;;;9.20;1.60;;;10.50;99.90;;;;;;5024755;28;20238;-69
2022/05/28 01:44:26;;;;;;;10.30;1.87;;;10.50;99.90;;;;;;5024373;28;20205;-70
2022/05/28 01:47:13;;;;;;;6.27;1.20;;;10.50;99.90;;;;;;5024765;28;20218;-70
2022/05/28 01:49:58;;;;;;;14.27;1.80;;;10.50;99.90;;;;;;5024835;28;20250;-71
2022/05/28 01:52:44;;;;;;;6.73;1.50;;;10.50;99.90;;;;;;5026031;28;20267;-70
2022/05/28 01:55:29;;;;;;;6.07;1.47;;;10.50;99.90;;;;;;5025029;28;20273;-70
2022/05/28 01:58:13;;;;;;;9.17;1.80;;;10.40;99.90;;;;;;5023481;28;20249;-70
2022/05/28 02:00:59;;;;;;;11.43;1.30;;;10.40;99.90;;;;;;5026788;28;20228;-70
2022/05/28 02:03:48;;;;;;;7.07;1.43;;;10.30;99.90;;;;;;5029747;28;20210;-70
2022/05/28 02:06:34;;;;;;;9.27;1.50;;;10.30;99.90;;;;;;5027353;28;20187;-70
2022/05/28 02:09:22;;;;;;;8.13;1.30;;;10.40;99.90;;;;;;5027490;28;20268;-70
2022/05/28 02:12:25;;;;;;;6.47;1.50;;;10.40;99.90;;;;;;5043014;28;20183;-70
2022/05/28 02:15:28;;;;;;;11.87;2.33;;;10.30;99.90;;;;;;5035571;28;20232;-70
2022/05/28 02:18:19;;;;;;;7.10;1.50;;;10.30;99.90;;;;;;5030883;28;20693;-70
2022/05/28 02:21:10;;;;;;;7.63;1.70;;;10.30;99.90;;;;;;5030935;28;20745;-70
2022/05/28 02:24:01;;;;;;;4.40;1.20;;;10.30;99.90;;;;;;5037706;28;20222;-70
2022/05/28 02:26:55;;;;;;;6.70;1.70;;;10.30;99.90;;;;;;5038765;28;20183;-70
2022/05/28 02:29:39;;;;;;;10.57;2.30;;;10.20;99.90;;;;;;5027787;28;20572;-70
2022/05/28 02:32:24;;;;;;;7.07;1.20;;;10.20;99.90;;;;;;5037749;28;20183;-70
2022/05/28 02:35:10;;;;;;;7.07;1.30;;;10.20;99.90;;;;;;5039471;28;20210;-70
2022/05/28 02:37:54;;;;;;;9.60;1.67;;;10.20;99.90;;;;;;5043810;28;20668;-70
2022/05/28 02:40:38;;;;;;;5.20;1.43;;;10.20;99.90;;;;;;5032032;28;20295;-70
2022/05/28 02:43:23;;;;;;;7.37;1.30;;;10.10;99.90;;;;;;5038560;28;20221;-70
2022/05/28 02:46:08;;;;;;;9.00;1.20;;;10.20;99.90;;;;;;5032565;28;20183;-70
2022/05/28 02:48:52;;;;;;;8.33;1.53;;;10.10;99.90;;;;;;5032015;28;20251;-70
2022/05/28 02:51:37;;;;;;;8.77;1.93;;;10.10;99.90;;;;;;5040004;28;20228;-72
2022/05/28 02:54:22;;;;;;;6.77;1.43;;;10.10;99.90;;;;;;5034560;28;20192;-71
2022/05/28 02:57:06;;;;;;;8.83;2.00;;;10.10;99.90;;;;;;5041054;28;20209;-70
2022/05/28 02:59:50;;;;;;;9.37;1.30;;;10.00;99.90;;;;;;5030941;28;20269;-71
2022/05/28 03:02:34;;;;;;;10.97;1.70;;;10.00;99.90;;;;;;5034194;28;20184;-70
2022/05/28 03:05:20;;;;;;;6.73;1.10;;;10.00;99.90;;;;;;5029927;28;20245;-70
2022/05/28 03:08:04;;;;;;;3.93;1.13;;;10.00;99.90;;;;;;5030718;28;20215;-70
2022/05/28 03:10:48;;;;;;;7.13;1.00;;;10.10;99.90;;;;;;5040849;28;20242;-71
2022/05/28 03:13:32;;;;;;;9.87;1.70;;;10.10;99.90;;;;;;5032861;28;20663;-69
2022/05/28 03:16:16;;;;;;;5.13;1.00;;;10.00;99.90;;;;;;5032868;28;20754;-70
2022/05/28 03:19:00;;;;;;;4.17;1.10;;;10.00;99.90;;;;;;5036049;28;20234;-70
2022/05/28 03:21:44;;;;;;;8.03;1.50;;;10.00;99.90;;;;;;5035357;28;20271;-70
2022/05/28 03:24:29;;;;;;;10.63;1.37;;;10.00;99.90;;;;;;5032928;28;20257;-70
2022/05/28 03:27:13;;;;;;;6.90;1.53;;;10.00;99.90;;;;;;5041092;28;20260;-69
2022/05/28 03:29:57;;;;;;;5.10;1.57;;;10.00;99.90;;;;;;5036607;28;20210;-70
2022/05/28 03:32:41;;;;;;;9.07;2.60;;;10.00;99.90;;;;;;5031953;28;20182;-70
2022/05/28 03:35:25;;;;;;;5.57;1.17;;;10.00;99.90;;;;;;5023942;28;20626;-70
2022/05/28 03:38:09;;;;;;;11.87;1.87;;;10.10;99.90;;;;;;5039295;28;20622;-70
2022/05/28 03:40:53;;;;;;;10.37;1.40;;;10.10;99.90;;;;;;5023923;28;20214;-70
2022/05/28 03:43:37;;;;;;;7.90;1.27;;;10.10;99.90;;;;;;5038752;28;20214;-70
2022/05/28 03:46:26;;;;;;;8.20;1.70;;;10.10;99.90;;;;;;5026085;28;20178;-70
2022/05/28 03:49:27;;;;;;;5.77;1.20;;;10.00;99.90;;;;;;5032737;28;20192;-71
2022/05/28 03:52:14;;;;;;;7.03;1.50;;;10.00;99.90;;;;;;5034637;28;20552;-70
2022/05/28 03:54:58;;;;;;;7.30;1.53;;;10.10;99.90;;;;;;5031290;28;20203;-72
2022/05/28 03:57:42;;;;;;;12.37;1.63;;;10.10;99.90;;;;;;5034044;28;20295;-71
2022/05/28 04:00:26;;;;;;;7.03;1.53;;;10.20;99.90;;;;;;5026521;28;20307;-71
2022/05/28 04:03:10;;;;;;;7.13;1.60;;;10.10;99.90;;;;;;5029587;28;20182;-71
2022/05/28 04:05:54;;;;;;;6.73;1.67;;;10.20;99.90;;;;;;5028591;28;20191;-71
2022/05/28 04:08:40;;;;;;;9.57;1.60;;;10.20;99.90;;;;;;5033196;28;20238;-71
2022/05/28 04:11:24;;;;;;;9.13;1.67;;;10.20;99.90;;;;;;5033246;28;20751;-71
2022/05/28 04:14:09;;;;;;;6.27;1.37;;;10.10;99.90;;;;;;5039297;28;20739;-70
2022/05/28 04:16:53;;;;;;;7.47;1.27;;;10.00;99.90;;;;;;5029788;28;20195;-71
2022/05/28 04:19:37;;;;;;;3.83;1.17;;;10.00;99.90;;;;;;5026215;28;20235;-71
2022/05/28 04:22:21;;;;;;;10.67;2.03;;;10.00;99.90;;;;;;5024074;28;20183;-71
2022/05/28 04:25:06;;;;;;;10.27;1.13;;;10.00;99.90;;;;;;5028157;28;20203;-71
2022/05/28 04:27:51;;;;;;;7.07;1.30;;;9.90;99.90;;;;;;5029854;28;20194;-71
2022/05/28 04:30:36;;;;;;;6.97;1.40;;;10.00;99.90;;;;;;5019961;28;20208;-71
2022/05/28 04:33:20;;;;;;;10.43;1.93;;;10.00;99.90;;;;;;5024122;28;20344;-71
2022/05/28 04:36:05;;;;;;;13.17;1.47;;;10.00;99.90;;;;;;5026439;28;20277;-71
2022/05/28 04:38:49;;;;;;;6.50;1.33;;;10.00;99.90;;;;;;5025609;28;20262;-70
2022/05/28 04:41:33;;;;;;;10.77;1.67;;;10.00;99.90;;;;;;5022315;28;20183;-71
2022/05/28 04:44:17;;;;;;;7.63;1.30;;;10.10;99.90;;;;;;5029892;28;20226;-71
2022/05/28 04:47:01;;;;;;;12.60;1.50;;;10.10;99.90;;;;;;5035838;28;20187;-71
2022/05/28 04:49:45;;;;;;;6.90;1.83;;;10.10;99.90;;;;;;5027806;28;20698;-71
2022/05/28 04:52:29;;;;;;;9.67;1.80;;;10.10;99.90;;;;;;5025005;28;20183;-71
2022/05/28 04:55:13;;;;;;;7.43;1.60;;;10.10;99.90;;;;;;5029062;28;20198;-71
2022/05/28 04:57:57;;;;;;;12.67;1.80;;;10.10;99.90;;;;;;5028910;28;20782;-70
2022/05/28 05:00:44;;;;;;;10.67;1.60;;;10.20;99.90;;;;;;5029499;28;20223;-71
2022/05/28 05:03:28;;;;;;;11.47;1.80;;;10.20;99.90;;;;;;5035678;28;20187;-71
2022/05/28 05:06:12;;;;;;;9.77;1.87;;;10.20;99.90;;;;;;5016701;28;20268;-71
2022/05/28 05:08:57;;;;;;;9.70;2.33;;;10.30;99.90;;;;;;5030031;28;20191;-71
2022/05/28 05:11:41;;;;;;;11.37;1.70;;;10.30;99.90;;;;;;5023824;28;20248;-71
2022/05/28 05:14:26;;;;;;;10.00;1.50;;;10.30;99.90;;;;;;5028552;28;20222;-71
2022/05/28 05:17:10;;;;;;;16.90;2.70;;;10.40;99.90;;;;;;5030344;28;20199;-71
2022/05/28 05:19:54;;;;;;;7.63;1.60;;;10.50;99.90;;;;;;5026629;28;20278;-70
2022/05/28 05:22:39;;;;;;;10.57;2.00;;;10.50;99.90;;;;;;5024016;28;20264;-70
2022/05/28 05:25:24;;;;;;;6.40;1.33;;;10.50;99.90;;;;;;5029080;28;20215;-71
2022/05/28 05:28:08;;;;;;;12.63;1.60;;;10.60;99.90;;;;;;5029601;28;20192;-71
2022/05/28 05:30:52;;;;;;;6.83;1.23;;;10.60;99.90;;;;;;5025307;28;20215;-71
2022/05/28 05:33:36;;;;;;;11.17;2.00;;;10.60;99.90;;;;;;5022873;28;20273;-71
2022/05/28 05:36:20;;;;;;;6.07;1.70;;;10.70;99.90;;;;;;5025074;28;20214;-71
2022/05/28 05:39:05;;;;;;;9.83;1.93;;;10.70;99.90;;;;;;5026603;28;20276;-71
2022/05/28 05:41:49;;;;;;;4.83;1.50;;;10.80;99.90;;;;;;5029748;28;20249;-71
2022/05/28 05:44:33;;;;;;;7.30;2.20;;;10.80;99.90;;;;;;5026551;28;20211;-71
2022/05/28 05:47:18;;;;;;;11.60;2.10;;;10.80;99.90;;;;;;5029144;28;20716;-71
2022/05/28 05:50:02;;;;;;;8.37;1.57;;;10.80;99.90;;;;;;5030355;28;20699;-71
2022/05/28 05:52:47;;;;;;;8.73;2.03;;;10.90;99.90;;;;;;5028642;28;20214;-71
2022/05/28 05:55:31;;;;;;;5.47;1.43;;;10.90;99.90;;;;;;5027123;28;20606;-71
2022/05/28 05:58:15;;;;;;;11.77;1.73;;;10.90;99.90;;;;;;5025480;28;20202;-71
2022/05/28 06:01:02;;;;;;;14.77;2.07;;;10.90;99.90;;;;;;5027446;28;20295;-71
2022/05/28 06:03:46;;;;;;;9.03;1.60;;;10.90;99.90;;;;;;5028739;28;20334;-71
2022/05/28 06:06:30;;;;;;;9.20;1.60;;;10.90;99.90;;;;;;5027679;28;20200;-71
2022/05/28 06:09:15;;;;;;;8.33;1.73;;;11.00;99.90;;;;;;5031153;28;20218;-71
2022/05/28 06:11:59;;;;;;;7.83;1.80;;;11.00;99.90;;;;;;5038399;28;20211;-71
2022/05/28 06:14:43;;;;;;;8.33;1.80;;;11.00;99.90;;;;;;5031600;28;20201;-71
2022/05/28 06:17:27;;;;;;;7.80;1.93;;;11.00;99.90;;;;;;5029743;28;20186;-71
2022/05/28 06:20:12;;;;;;;6.80;1.53;;;10.90;99.90;;;;;;5032104;28;20219;-70
2022/05/28 06:22:56;;;;;;;10.53;2.03;;;11.00;99.90;;;;;;5031465;28;20192;-71
2022/05/28 06:25:40;;;;;;;10.03;1.70;;;11.00;99.90;;;;;;5025988;28;20709;-71
2022/05/28 06:28:25;;;;;;;13.03;1.87;;;11.00;99.90;;;;;;5038202;28;20183;-71
2022/05/28 06:31:11;;;;;;;8.93;1.73;;;11.00;99.90;;;;;;5031368;28;20270;-71
2022/05/28 06:33:55;;;;;;;10.43;1.97;;;11.10;99.90;;;;;;5026692;28;20242;-71
2022/05/28 06:36:39;;;;;;;11.00;2.27;;;11.10;99.90;;;;;;5027425;28;20211;-71
2022/05/28 06:39:24;;;;;;;6.17;1.40;;;11.20;99.90;;;;;;5023027;28;20275;-72
2022/05/28 06:42:08;;;;;;;9.90;2.37;;;11.20;99.90;;;;;;5029254;28;20196;-71
2022/05/28 06:44:55;;;;;;;9.30;1.97;;;11.30;99.90;;;;;;5030475;28;20254;-71
2022/05/28 06:47:43;;;;;;;8.60;1.77;;;11.30;99.90;;;;;;5024977;28;20238;-71
2022/05/28 06:53:32;;;;;;;10.83;1.57;;;11.40;99.90;;;;;;5022836;28;20286;-71
2022/05/28 06:56:18;;;;;;;8.43;1.90;;;11.40;99.90;;;;;;5019768;28;20564;-71
2022/05/28 06:59:02;;;;;;;11.43;2.33;;;11.40;99.90;;;;;;5029056;28;20222;-71
2022/05/28 07:01:47;;;;;;;6.17;1.70;;;11.50;99.90;;;;;;5027319;28;20184;-71
2022/05/28 07:04:31;;;;;;;9.97;1.90;;;11.60;99.90;;;;;;5024020;28;20262;-71
2022/05/28 07:07:15;;;;;;;12.37;2.13;;;11.60;99.90;;;;;;5022505;28;20191;-71
2022/05/28 07:09:59;;;;;;;11.03;1.73;;;11.70;99.90;;;;;;5026301;28;20788;-71
2022/05/28 07:12:43;;;;;;;11.80;2.10;;;11.70;99.90;;;;;;5019413;28;20230;-71
2022/05/28 07:15:27;;;;;;;7.70;1.60;;;11.80;99.90;;;;;;5027009;28;20234;-71
2022/05/28 07:18:12;;;;;;;7.80;1.97;;;11.80;99.90;;;;;;5022000;28;20226;-70
2022/05/28 07:20:56;;;;;;;12.83;2.27;;;11.90;99.90;;;;;;5026028;28;20219;-70
2022/05/28 07:23:41;;;;;;;7.53;1.87;;;11.90;99.90;;;;;;5021440;28;20228;-70
2022/05/28 07:26:25;;;;;;;11.10;2.00;;;11.90;99.90;;;;;;5028285;28;20203;-70
2022/05/28 07:29:09;;;;;;;13.97;1.73;;;11.90;99.90;;;;;;5028973;28;20183;-70
2022/05/28 07:31:53;;;;;;;18.20;2.33;;;11.90;99.90;;;;;;5024565;28;20218;-70
2022/05/28 07:34:37;;;;;;;12.17;2.10;;;11.90;99.90;;;;;;5026963;28;20188;-70
2022/05/28 07:37:21;;;;;;;12.27;1.97;;;11.90;99.90;;;;;;5028323;28;20203;-71
2022/05/28 07:40:06;;;;;;;11.40;2.77;;;12.00;99.90;;;;;;5025314;28;20271;-71
2022/05/28 07:42:50;;;;;;;16.03;1.90;;;12.10;99.90;;;;;;5024124;28;20192;-71
2022/05/28 07:45:39;;;;;;;10.30;2.40;;;12.20;99.90;;;;;;5018472;28;20258;-71
2022/05/28 07:48:23;;;;;;;9.53;2.00;;;12.20;99.90;;;;;;5015906;28;20180;-71
2022/05/28 07:51:07;;;;;;;7.00;1.57;;;12.30;99.90;;;;;;5025726;28;20219;-71
2022/05/28 07:53:52;;;;;;;7.57;1.50;;;12.30;99.90;;;;;;5016283;28;20333;-71
2022/05/28 07:56:36;;;;;;;8.83;1.63;;;12.30;99.90;;;;;;5027572;28;20280;-71
2022/05/28 07:59:20;;;;;;;7.40;1.50;;;12.30;99.90;;;;;;5026749;28;20207;-70
2022/05/28 08:02:04;;;;;;;6.07;1.63;;;12.30;99.90;;;;;;5021190;28;20191;-71
2022/05/28 08:04:48;;;;;;;12.57;2.27;;;12.30;99.90;;;;;;5019876;28;20234;-72
2022/05/28 08:07:32;;;;;;;7.77;1.50;;;12.40;99.90;;;;;;5024618;28;20183;-71
2022/05/28 08:10:16;;;;;;;10.53;2.00;;;12.40;99.90;;;;;;5025328;28;20214;-71
2022/05/28 08:13:06;;;;;;;9.47;2.20;;;12.50;99.90;;;;;;5021759;28;20194;-72
2022/05/28 08:15:52;;;;;;;5.93;1.63;;;12.70;99.90;;;;;;5027556;28;20193;-71
2022/05/28 08:18:37;;;;;;;11.00;1.97;;;12.70;99.90;;;;;;5024245;28;20213;-72
2022/05/28 08:24:24;;;;;;;5.17;1.67;;;12.50;99.90;;;;;;5022491;28;20211;-72
2022/05/28 08:27:09;;;;;;;10.17;1.30;;;12.50;99.90;;;;;;5022308;28;20187;-70
2022/05/28 08:29:53;;;;;;;7.37;1.60;;;12.50;99.90;;;;;;5026697;28;20247;-70
2022/05/28 08:32:37;;;;;;;6.83;1.30;;;12.50;99.90;;;;;;5022090;28;20180;-70
2022/05/28 08:35:21;;;;;;;6.40;1.77;;;12.60;99.90;;;;;;5027933;28;20275;-72
2022/05/28 08:38:10;;;;;;;11.20;1.43;;;12.60;99.90;;;;;;5024931;28;20195;-71
2022/05/28 08:41:08;;;;;;;4.80;1.20;;;12.70;99.90;;;;;;5022593;28;20253;-71
2022/05/28 08:44:16;;;;;;;8.13;1.60;;;12.80;99.90;;;;;;5025439;28;20223;-71
2022/05/28 08:47:21;;;;;;;8.83;1.60;;;12.90;99.90;;;;;;5022502;28;20631;-70
2022/05/28 08:50:07;;;;;;;6.80;1.37;;;13.00;99.90;;;;;;5021478;28;20230;-71
2022/05/28 08:53:03;;;;;;;9.13;1.67;;;13.00;99.90;;;;;;5024093;28;20313;-70
2022/05/28 08:55:50;;;;;;;6.33;1.90;;;13.10;99.90;;;;;;5020042;28;20200;-71
2022/05/28 08:58:35;;;;;;;9.10;1.97;;;13.20;99.90;;;;;;5021103;28;20690;-71
2022/05/28 09:01:22;;;;;;;6.90;1.57;;;13.30;99.90;;;;;;5012187;28;20262;-71
2022/05/28 09:04:25;;;;;;;10.93;1.83;;;13.40;99.90;;;;;;5021310;28;20215;-70
2022/05/28 09:07:12;;;;;;;10.27;2.00;;;13.40;99.90;;;;;;5023364;28;20547;-71
2022/05/28 09:09:57;;;;;;;5.30;1.63;;;13.50;99.90;;;;;;5024033;28;20242;-71
2022/05/28 09:12:45;;;;;;;8.00;1.93;;;13.60;99.90;;;;;;5027231;28;20179;-70
2022/05/28 09:15:31;;;;;;;5.83;1.20;;;13.70;99.90;;;;;;5024650;28;20230;-70
2022/05/28 09:18:17;;;;;;;7.57;1.90;;;13.80;99.90;;;;;;5033427;28;20211;-70
2022/05/28 09:21:02;;;;;;;10.80;2.20;;;13.90;99.90;;;;;;5019137;28;20222;-70
2022/05/28 09:23:55;;;;;;;5.87;1.60;;;13.90;99.90;;;;;;5033596;28;20210;-70
2022/05/28 09:26:57;;;;;;;10.83;2.10;;;13.80;99.90;;;;;;5028667;28;20687;-72
2022/05/28 09:29:51;;;;;;;6.87;1.50;;;13.70;99.90;;;;;;5031524;28;20206;-72
2022/05/28 09:32:55;;;;;;;7.07;2.10;;;13.70;99.90;;;;;;5024467;28;20188;-71
2022/05/28 09:36:03;;;;;;;8.60;1.83;;;13.60;99.90;;;;;;5025303;28;20245;-71
2022/05/28 09:39:04;;;;;;;12.60;2.33;;;13.50;99.90;;;;;;5025084;28;20198;-71
2022/05/28 09:42:12;;;;;;;12.20;2.20;;;13.50;99.90;;;;;;5024384;28;20666;-72
2022/05/28 09:45:02;;;;;;;13.10;1.87;;;13.60;99.90;;;;;;5025485;28;20673;-72
2022/05/28 09:47:51;;;;;;;8.43;1.50;;;13.60;99.90;;;;;;5027424;28;20767;-71
2022/05/28 09:50:42;;;;;;;5.90;1.13;;;13.50;99.90;;;;;;5024685;28;20223;-71
2022/05/28 09:56:38;;;;;;;3.43;1.20;;;13.30;99.90;;;;;;5025854;28;20180;-71
2022/05/28 09:59:35;;;;;;;3.43;0.73;;;13.10;99.90;;;;;;5039779;28;20218;-72
2022/05/28 10:02:20;;;;;;;8.37;1.33;;;13.00;99.90;;;;;;5023608;28;20267;-71
2022/05/28 10:05:16;;;;;;;3.40;0.97;;;13.10;99.90;;;;;;5025182;28;20211;-71
2022/05/28 10:08:10;;;;;;;5.57;1.27;;;13.10;99.90;;;;;;5025916;28;20234;-71
2022/05/28 10:10:59;;;;;;;2.60;1.03;;;13.10;99.90;;;;;;5023857;28;20219;-70
2022/05/28 10:13:54;;;;;;;4.77;1.33;;;13.10;99.90;;;;;;5025266;28;20265;-71
2022/05/28 10:16:40;;;;;;;3.90;1.63;;;13.20;99.90;;;;;;5025216;28;20199;-71
2022/05/28 10:19:53;;;;;;;7.27;1.37;;;13.30;99.90;;;;;;5025621;28;20191;-71
2022/05/28 10:22:38;;;;;;;5.73;1.57;;;13.40;99.90;;;;;;5022315;28;20196;-71
2022/05/28 10:25:34;;;;;;;6.30;1.43;;;13.60;99.90;;;;;;5025401;28;20215;-71
2022/05/28 10:28:29;;;;;;;6.60;1.57;;;13.80;99.90;;;;;;5022005;28;20362;-71
2022/05/28 10:31:24;;;;;;;10.23;1.60;;;13.90;99.90;;;;;;5023893;28;20717;-72
2022/05/28 10:34:37;;;;;;;8.07;1.63;;;14.00;99.90;;;;;;5023093;28;20203;-72
2022/05/28 10:37:21;;;;;;;10.40;1.70;;;14.10;99.90;;;;;;5026170;28;20203;-73
2022/05/28 10:40:10;;;;;;;7.20;1.60;;;14.10;99.90;;;;;;5021788;28;20227;-72
2022/05/28 10:42:58;;;;;;;10.20;1.70;;;13.90;99.90;;;;;;5025124;28;20348;-73
2022/05/28 10:45:48;;;;;;;8.07;1.70;;;13.70;99.90;;;;;;5025667;28;20257;-72
2022/05/28 10:48:44;;;;;;;8.47;1.73;;;13.50;99.90;;;;;;5023756;28;20195;-74
2022/05/28 10:51:49;;;;;;;7.47;1.43;;;13.40;99.90;;;;;;5022457;28;20211;-72
2022/05/28 10:55:08;;;;;;;11.23;2.30;;;13.30;99.90;;;;;;5024661;28;20226;-72
2022/05/28 10:58:04;;;;;;;5.87;1.77;;;13.40;99.90;;;;;;5025742;28;20269;-72
2022/05/28 11:01:26;;;;;;;4.83;1.40;;;13.50;99.90;;;;;;5022434;28;20238;-71
2022/05/28 11:04:43;;;;;;;6.83;1.50;;;13.70;99.90;;;;;;5022969;28;20250;-71
2022/05/28 11:07:49;;;;;;;7.17;1.60;;;14.00;99.90;;;;;;5020763;28;20710;-73
2022/05/28 11:10:56;;;;;;;9.13;1.50;;;14.30;99.90;;;;;;5025003;28;20580;-72
2022/05/28 11:13:57;;;;;;;8.50;1.53;;;14.30;99.90;;;;;;5024152;28;20229;-71
2022/05/28 11:16:47;;;;;;;10.97;1.73;;;14.20;99.90;;;;;;5025573;28;20272;-72
2022/05/28 11:19:46;;;;;;;7.97;1.40;;;14.10;99.90;;;;;;5024712;28;20222;-70
2022/05/28 11:22:33;;;;;;;10.40;1.83;;;14.10;99.90;;;;;;5025918;28;20239;-72
2022/05/28 11:25:36;;;;;;;5.67;1.47;;;14.20;99.90;;;;;;5026356;28;20266;-72
2022/05/28 11:28:58;;;;;;;8.33;1.70;;;14.20;99.90;;;;;;5025212;28;20179;-71
2022/05/28 11:32:00;;;;;;;4.23;1.23;;;14.40;99.90;;;;;;5024448;28;20214;-71
2022/05/28 11:35:26;;;;;;;7.47;1.63;;;14.50;99.90;;;;;;5027521;28;20191;-71
2022/05/28 11:38:33;;;;;;;10.17;1.40;;;14.70;99.90;;;;;;5036239;28;20207;-71
2022/05/28 11:41:36;;;;;;;6.30;1.23;;;14.70;99.90;;;;;;5019483;28;20233;-72
2022/05/28 11:44:25;;;;;;;10.77;2.07;;;14.80;99.90;;;;;;5023920;28;20229;-71
2022/05/28 11:47:27;;;;;;;7.03;1.30;;;14.90;99.90;;;;;;5020654;28;20199;-72
2022/05/28 11:53:43;;;;;;;4.87;1.40;;;15.00;99.90;;;;;;5023955;28;20184;-72
2022/05/28 11:56:30;;;;;;;4.20;1.00;;;15.00;99.90;;;;;;5021370;28;20231;-72
2022/05/28 11:59:20;;;;;;;4.67;1.43;;;15.00;99.90;;;;;;5023279;28;20298;-70
2022/05/28 12:02:10;;;;;;;4.33;1.20;;;15.00;99.90;;;;;;5025806;28;20257;-72
2022/05/28 12:04:55;;;;;;;4.83;1.03;;;15.00;99.90;;;;;;5028526;28;20207;-72
2022/05/28 12:07:40;;;;;;;5.87;1.50;;;14.90;99.90;;;;;;5023806;28;20192;-72
2022/05/28 12:10:50;;;;;;;6.47;1.00;;;14.80;99.90;;;;;;5028111;28;20234;-72
2022/05/28 12:13:56;;;;;;;5.70;1.13;;;14.70;99.90;;;;;;5026095;28;20266;-71
2022/05/28 12:16:42;;;;;;;3.30;0.77;;;14.70;99.90;;;;;;5022218;28;20335;-73
2022/05/28 12:19:27;;;;;;;3.97;1.30;;;14.70;99.90;;;;;;5025077;28;20192;-71
2022/05/28 12:22:28;;;;;;;6.17;1.07;;;14.90;99.90;;;;;;5026252;28;20192;-71
2022/05/28 12:25:13;;;;;;;6.67;1.50;;;15.00;99.90;;;;;;5023605;28;20295;-73
2022/05/28 12:28:02;;;;;;;4.53;1.03;;;15.10;99.90;;;;;;5024988;28;20225;-73
2022/05/28 12:30:49;;;;;;;4.23;1.23;;;15.10;99.90;;;;;;5021565;28;20242;-72
2022/05/28 12:33:48;;;;;;;6.67;1.63;;;15.20;99.90;;;;;;5022723;28;20208;-72
2022/05/28 12:36:44;;;;;;;4.53;1.13;;;15.20;99.90;;;;;;5021707;28;20223;-73
2022/05/28 12:39:44;;;;;;;4.40;1.20;;;15.20;99.90;;;;;;5023053;28;20281;-72
2022/05/28 12:42:30;;;;;;;4.47;1.30;;;15.30;99.90;;;;;;5024411;28;20188;-71
2022/05/28 12:45:16;;;;;;;6.33;1.53;;;15.30;99.90;;;;;;5023808;28;20213;-71
2022/05/28 12:48:32;;;;;;;7.60;1.53;;;15.40;99.90;;;;;;5024840;28;20235;-73
2022/05/28 12:51:33;;;;;;;4.53;1.30;;;15.30;99.90;;;;;;5023541;28;20354;-72
2022/05/28 12:54:26;;;;;;;2.20;0.97;;;15.10;99.90;;;;;;5016010;28;20269;-72
2022/05/28 12:57:26;;;;;;;2.60;0.80;;;15.10;99.90;;;;;;5022726;28;20195;-73
2022/05/28 13:00:21;;;;;;;5.30;1.10;;;15.20;99.90;;;;;;5024007;28;20254;-72
2022/05/28 13:03:07;;;;;;;6.10;0.90;;;15.30;99.90;;;;;;5021882;28;20230;-73
2022/05/28 13:06:00;;;;;;;5.90;1.00;;;15.40;99.90;;;;;;5021205;28;20230;-71
2022/05/28 13:08:58;;;;;;;5.73;1.70;;;15.50;99.90;;;;;;5023005;28;20230;-72
2022/05/28 13:12:16;;;;;;;5.53;1.17;;;15.60;99.90;;;;;;5022789;28;20247;-71
2022/05/28 13:15:00;;;;;;;5.17;1.33;;;15.50;99.90;;;;;;5023378;28;20226;-72
2022/05/28 13:18:12;;;;;;;5.27;1.27;;;15.40;99.90;;;;;;5023256;28;20203;-72
2022/05/28 13:21:11;;;;;;;6.50;1.50;;;15.30;99.90;;;;;;5020608;28;20226;-72
2022/05/28 13:24:05;;;;;;;9.20;2.17;;;15.20;99.90;;;;;;5022831;28;20216;-72
2022/05/28 13:27:02;;;;;;;7.93;1.27;;;15.20;99.90;;;;;;5022723;28;20254;-72
2022/05/28 13:30:14;;;;;;;5.43;1.40;;;15.10;99.90;;;;;;5007951;28;20223;-72
2022/05/28 13:33:07;;;;;;;8.00;1.93;;;15.20;99.90;;;;;;5023705;28;20211;-72
2022/05/28 13:35:55;;;;;;;5.30;1.30;;;15.20;99.90;;;;;;5023404;28;20195;-73
2022/05/28 13:38:43;;;;;;;7.57;1.90;;;15.10;99.90;;;;;;5021881;28;20302;-72
2022/05/28 13:41:38;;;;;;;7.97;2.07;;;15.00;99.90;;;;;;5020297;28;20756;-72
2022/05/28 13:44:27;;;;;;;6.00;1.37;;;15.00;99.90;;;;;;5017671;28;20207;-71
2022/05/28 13:47:15;;;;;;;8.47;1.50;;;14.90;99.90;;;;;;5018542;28;20207;-73
2022/05/28 13:50:01;;;;;;;6.03;1.43;;;14.80;99.90;;;;;;5023091;28;20319;-71
2022/05/28 13:52:47;;;;;;;2.90;1.10;;;14.80;99.90;;;;;;5024695;28;20191;-72
2022/05/28 13:55:41;;;;;;;3.07;1.00;;;14.90;99.90;;;;;;5023089;28;20203;-73
2022/05/28 13:58:36;;;;;;;7.20;1.20;;;15.00;99.90;;;;;;5027351;28;20258;-75
2022/05/28 14:01:37;;;;;;;3.97;1.20;;;15.10;99.90;;;;;;5028137;28;20219;-72
2022/05/28 14:04:23;;;;;;;7.13;1.00;;;15.20;99.90;;;;;;5025984;28;20388;-71
2022/05/28 14:07:14;;;;;;;5.03;1.00;;;15.30;99.90;;;;;;5024655;28;20258;-73
2022/05/28 14:10:01;;;;;;;4.30;1.20;;;15.50;99.90;;;;;;5028565;28;20758;-73
2022/05/28 14:12:48;;;;;;;2.70;1.20;;;15.60;99.90;;;;;;5022254;28;20191;-73
2022/05/28 14:15:32;;;;;;;8.27;0.97;;;15.70;99.90;;;;;;5027802;28;20234;-73
2022/05/28 14:18:23;;;;;;;8.00;1.60;;;15.70;99.90;;;;;;5027357;28;20686;-73
2022/05/28 14:21:10;;;;;;;4.67;1.40;;;15.70;99.90;;;;;;5025015;28;20289;-73
2022/05/28 14:23:54;;;;;;;4.47;1.40;;;15.60;99.90;;;;;;5045789;28;22147;-73
2022/05/28 14:26:38;;;;;;;5.07;1.07;;;15.50;99.90;;;;;;5025355;28;20234;-72
2022/05/28 14:29:29;;;;;;;4.47;1.30;;;15.40;99.90;;;;;;5027896;28;20314;-73
2022/05/28 14:32:19;;;;;;;4.97;1.03;;;15.30;99.90;;;;;;5022820;28;20183;-74
2022/05/28 14:35:10;;;;;;;6.27;1.20;;;15.30;99.90;;;;;;5026748;28;20719;-73
2022/05/28 14:38:06;;;;;;;5.70;1.23;;;15.30;99.90;;;;;;5025057;28;20192;-72
2022/05/28 14:40:52;;;;;;;4.77;1.00;;;15.30;99.90;;;;;;5026374;28;20247;-73
2022/05/28 14:43:37;;;;;;;6.37;1.20;;;15.30;99.90;;;;;;5024755;28;20242;-73
2022/05/28 14:46:27;;;;;;;4.70;1.47;;;15.20;99.90;;;;;;5025520;28;20187;-73
2022/05/28 14:49:28;;;;;;;4.53;1.47;;;15.10;99.90;;;;;;5025468;28;20626;-72
2022/05/28 14:52:18;;;;;;;8.93;1.40;;;15.00;99.90;;;;;;5025203;28;20198;-72
2022/05/28 14:55:10;;;;;;;9.43;1.37;;;14.80;99.90;;;;;;5023286;28;20222;-72